Jeremiah, Kentucky
Current Conditions -  °F | °C
As of 2:35 PM on Thursday 27 Nov 2014 (Local Time) from KLNP Reporting Station
Overcast Overcast  
Wind Chill: 21°   Ceiling: 700
Heat Index: 30°   Visibility: 10mi
Dew Point: 30°   Wind: 12mph
Humidity: 100%   Direction: 300°WNW
Pressure: 30.17"   Gusts: 16mph
Location:  37.17°N, 82.93°W
Report Text: KLNP 271935Z AUTO 30010G14KT 10SM OVC007 M01/M01 A3017 RMK AO2
Loading
Personal Weather Stations






























Interactive Weather Map New forecast layout! Learn more

10-Day Weather Forecast

Advertisements
Track Severe Weather on mobile